Cranham, United Kingdom
Current Conditions -  °F | °C
As of 3:50 AM on Friday 28 Nov 2014 (Local Time) from EGLC Reporting Station
Haze Haze  
Wind Chill: 52°   Ceiling: 700
Heat Index: 52°   Visibility: 3mi
Dew Point: 48°   Wind: 12mph
Humidity: 88%   Direction: 90°E
Pressure: 29.59"   Gusts: NA
Location:  51.57°N, 0.27°E
Report Text: EGLC 280350Z AUTO 09010KT 4800 BR FEW005/// BKN007/// 11/09 Q1002
Loading
Personal Weather Stations






























Interactive Weather Map New forecast layout! Learn more

10-Day Weather Forecast

Advertisements
Track Severe Weather on mobile